Time;durP1;ratioP1;P1;durP2;ratioP2;P2;SDS_P1;SDS_P2;PMS_P1;PMS_P2;Temp;Humidity;BMP_temperature;BMP_pressure;BME280_temperature;BME280_humidity;BME280_pressure;Samples;Min_cycle;Max_cycle;Signal;HPM_P1;HPM_P2
2021/05/07 00:01:12;;;;;;;4.80;1.60;;;6.60;99.90;;;;;;5025632;28;20238;-80
2021/05/07 00:03:40;;;;;;;2.27;1.27;;;6.60;99.90;;;;;;5029872;28;20300;-79
2021/05/07 00:06:09;;;;;;;1.63;1.00;;;6.60;99.90;;;;;;5028403;28;20224;-77
2021/05/07 00:08:38;;;;;;;2.60;1.10;;;6.50;99.90;;;;;;5025708;28;20290;-76
2021/05/07 00:11:06;;;;;;;5.63;1.90;;;6.50;99.90;;;;;;5025445;28;20283;-79
2021/05/07 00:13:33;;;;;;;3.80;1.20;;;6.50;99.90;;;;;;5026041;28;20207;-78
2021/05/07 00:15:59;;;;;;;2.80;1.20;;;6.50;99.90;;;;;;5026008;28;20209;-79
2021/05/07 00:18:26;;;;;;;3.40;1.27;;;6.50;99.90;;;;;;5025401;28;20635;-77
2021/05/07 00:20:53;;;;;;;2.03;1.20;;;6.50;99.90;;;;;;5026460;28;20264;-78
2021/05/07 00:23:19;;;;;;;3.77;1.23;;;6.50;99.90;;;;;;5026665;28;20209;-77
2021/05/07 00:25:47;;;;;;;4.13;1.60;;;6.50;99.90;;;;;;5025467;28;20194;-79
2021/05/07 00:28:14;;;;;;;9.90;1.73;;;6.60;99.90;;;;;;5026250;28;20198;-78
2021/05/07 00:30:41;;;;;;;2.13;1.10;;;6.60;99.90;;;;;;5025342;28;20520;-81
2021/05/07 00:33:08;;;;;;;2.37;1.00;;;6.60;99.90;;;;;;5025152;28;20206;-78
2021/05/07 00:35:35;;;;;;;4.40;1.13;;;6.70;99.90;;;;;;5025810;28;20206;-79
2021/05/07 00:38:02;;;;;;;2.40;1.40;;;6.70;99.90;;;;;;5025574;28;20226;-79
2021/05/07 00:40:29;;;;;;;5.57;1.10;;;6.80;99.90;;;;;;5025372;28;20226;-78
2021/05/07 00:42:57;;;;;;;4.07;1.83;;;6.80;99.90;;;;;;5025068;28;20469;-79
2021/05/07 00:45:24;;;;;;;2.50;1.47;;;6.80;99.90;;;;;;5025105;28;20195;-77
2021/05/07 00:47:56;;;;;;;2.50;1.30;;;6.80;99.90;;;;;;5034087;28;20240;-79
2021/05/07 00:50:24;;;;;;;2.43;1.30;;;6.80;99.90;;;;;;5045415;28;20190;-77
2021/05/07 00:52:51;;;;;;;3.07;1.43;;;6.90;99.90;;;;;;5044745;28;20198;-78
2021/05/07 00:55:17;;;;;;;1.63;1.20;;;7.00;99.90;;;;;;5044275;28;20201;-77
2021/05/07 00:57:43;;;;;;;4.20;1.20;;;7.00;99.90;;;;;;5045220;28;20206;-78
2021/05/07 01:00:12;;;;;;;2.40;1.67;;;7.00;99.90;;;;;;5044336;28;20201;-79
2021/05/07 01:02:38;;;;;;;6.60;1.50;;;7.10;99.90;;;;;;5044833;28;20198;-79
2021/05/07 01:05:07;;;;;;;2.20;1.03;;;7.10;99.90;;;;;;5032659;28;20218;-77
2021/05/07 01:07:34;;;;;;;3.33;0.90;;;7.20;99.90;;;;;;5024051;28;20255;-79
2021/05/07 01:10:01;;;;;;;3.17;1.43;;;7.20;99.90;;;;;;5024599;28;20218;-79
2021/05/07 01:12:29;;;;;;;2.03;0.93;;;7.20;99.90;;;;;;5024028;28;20293;-80
2021/05/07 01:15:04;;;;;;;4.23;2.03;;;7.20;99.90;;;;;;5025038;28;20202;-78
2021/05/07 01:17:32;;;;;;;2.13;1.20;;;7.30;99.90;;;;;;5024955;28;20217;-80
2021/05/07 01:20:07;;;;;;;2.30;1.10;;;7.20;99.90;;;;;;5024243;28;20230;-78
2021/05/07 01:22:33;;;;;;;2.17;1.00;;;7.20;99.90;;;;;;5024418;28;20387;-79
2021/05/07 01:25:00;;;;;;;1.67;1.27;;;7.20;99.90;;;;;;5023997;28;20203;-78
2021/05/07 01:27:26;;;;;;;3.23;1.43;;;7.20;99.90;;;;;;5035865;28;20213;-77
2021/05/07 01:29:53;;;;;;;3.60;1.30;;;7.30;99.90;;;;;;5044329;28;20201;-79
2021/05/07 01:32:19;;;;;;;2.83;1.60;;;7.30;99.90;;;;;;5044198;28;20224;-79
2021/05/07 01:34:45;;;;;;;3.77;1.50;;;7.30;99.90;;;;;;5026305;28;20547;-78
2021/05/07 01:37:12;;;;;;;4.43;2.17;;;7.30;99.90;;;;;;5023279;28;20217;-78
2021/05/07 01:39:38;;;;;;;3.67;1.57;;;7.20;99.90;;;;;;5023339;28;20238;-78
2021/05/07 01:42:06;;;;;;;4.23;1.73;;;7.20;99.90;;;;;;5022651;28;20197;-79
2021/05/07 01:44:32;;;;;;;6.90;2.50;;;7.30;99.90;;;;;;5023821;28;20551;-78
2021/05/07 01:46:58;;;;;;;6.87;2.80;;;7.20;99.90;;;;;;5023356;28;20223;-80
2021/05/07 01:49:24;;;;;;;5.93;2.47;;;7.20;99.90;;;;;;5023352;28;20233;-78
2021/05/07 01:51:51;;;;;;;6.43;2.17;;;7.20;99.90;;;;;;5023147;28;20264;-80
2021/05/07 01:54:18;;;;;;;7.03;2.40;;;7.20;99.90;;;;;;5023451;28;20206;-80
2021/05/07 01:56:44;;;;;;;4.67;2.83;;;7.20;99.90;;;;;;5022763;28;20595;-79
2021/05/07 01:59:10;;;;;;;5.57;2.80;;;7.10;99.90;;;;;;5023915;28;20647;-79
2021/05/07 02:01:37;;;;;;;5.00;2.50;;;7.10;99.90;;;;;;5023762;28;20206;-79
2021/05/07 02:04:03;;;;;;;10.70;3.20;;;7.10;99.90;;;;;;5023103;28;20202;-79
2021/05/07 02:06:30;;;;;;;13.77;3.23;;;7.10;99.90;;;;;;5023681;28;20265;-78
2021/05/07 02:08:56;;;;;;;9.53;3.27;;;7.10;99.90;;;;;;5023626;28;20202;-79
2021/05/07 02:11:23;;;;;;;6.03;2.37;;;7.00;99.90;;;;;;5022537;28;20218;-78
2021/05/07 02:13:50;;;;;;;5.03;1.70;;;7.00;99.90;;;;;;5023019;28;20194;-79
2021/05/07 02:16:16;;;;;;;5.50;1.90;;;6.90;99.90;;;;;;5023638;28;20203;-78
2021/05/07 02:18:43;;;;;;;4.20;1.97;;;6.90;99.90;;;;;;5022321;28;20643;-79
2021/05/07 02:21:11;;;;;;;6.27;2.37;;;6.90;99.90;;;;;;5022991;28;20217;-77
2021/05/07 02:23:37;;;;;;;5.20;1.90;;;6.90;99.90;;;;;;5022823;28;20356;-78
2021/05/07 02:26:03;;;;;;;2.40;1.33;;;6.80;99.90;;;;;;5022490;28;20203;-79
2021/05/07 02:28:30;;;;;;;2.40;1.70;;;6.80;99.90;;;;;;5023926;28;20201;-78
2021/05/07 02:30:57;;;;;;;1.83;1.30;;;6.80;99.90;;;;;;5022770;28;20775;-80
2021/05/07 02:33:23;;;;;;;2.33;1.10;;;6.90;99.90;;;;;;5023267;28;20222;-79
2021/05/07 02:35:49;;;;;;;1.73;1.20;;;6.80;99.90;;;;;;5023041;28;20214;-79
2021/05/07 02:38:16;;;;;;;4.17;1.60;;;6.80;99.90;;;;;;5023039;28;20222;-79
2021/05/07 02:40:42;;;;;;;3.80;1.87;;;6.90;99.90;;;;;;5023913;28;20214;-78
2021/05/07 02:43:10;;;;;;;3.43;1.60;;;6.90;99.90;;;;;;5023363;28;20210;-78
2021/05/07 02:45:37;;;;;;;2.27;1.83;;;6.90;99.90;;;;;;5023024;28;20209;-78
2021/05/07 02:48:05;;;;;;;2.27;1.30;;;7.00;99.90;;;;;;5023783;28;20292;-78
2021/05/07 02:50:31;;;;;;;3.07;1.40;;;7.00;99.90;;;;;;5022893;28;20213;-78
2021/05/07 02:52:57;;;;;;;1.97;1.67;;;6.90;99.90;;;;;;5022574;28;20198;-79
2021/05/07 02:55:24;;;;;;;1.80;0.93;;;6.90;99.90;;;;;;5023758;28;20217;-76
2021/05/07 02:57:50;;;;;;;1.87;1.40;;;6.80;99.90;;;;;;5023127;28;20207;-77
2021/05/07 03:00:18;;;;;;;2.73;1.80;;;6.70;99.90;;;;;;5023021;28;20246;-77
2021/05/07 03:02:45;;;;;;;2.27;1.30;;;6.60;99.90;;;;;;5023090;28;20525;-78
2021/05/07 03:05:12;;;;;;;1.60;1.50;;;6.40;99.90;;;;;;5023049;28;20920;-78
2021/05/07 03:07:38;;;;;;;2.97;1.60;;;6.50;99.90;;;;;;5021973;28;20218;-77
2021/05/07 03:10:05;;;;;;;2.50;1.53;;;6.40;99.90;;;;;;5023140;28;20268;-77
2021/05/07 03:12:32;;;;;;;2.87;1.63;;;6.40;99.90;;;;;;5023092;28;20215;-78
2021/05/07 03:14:58;;;;;;;6.67;2.17;;;6.30;99.90;;;;;;5021669;28;20203;-77
2021/05/07 03:17:24;;;;;;;3.67;2.27;;;6.30;99.90;;;;;;5022971;28;20313;-77
2021/05/07 03:19:51;;;;;;;1.97;1.80;;;6.30;99.90;;;;;;5022288;28;20230;-78
2021/05/07 03:22:17;;;;;;;3.90;2.00;;;6.20;99.90;;;;;;5021770;28;20527;-77
2021/05/07 03:24:44;;;;;;;2.53;2.10;;;6.10;99.90;;;;;;5022475;28;20202;-79
2021/05/07 03:27:10;;;;;;;2.70;2.20;;;6.10;99.90;;;;;;5021770;28;20257;-78
2021/05/07 03:29:36;;;;;;;3.20;2.33;;;6.00;99.90;;;;;;5022257;28;20249;-76
2021/05/07 03:32:02;;;;;;;3.47;3.17;;;5.90;99.90;;;;;;5021571;28;20211;-78
2021/05/07 03:34:29;;;;;;;3.20;2.90;;;5.90;99.90;;;;;;5022303;28;20207;-76
2021/05/07 03:36:56;;;;;;;3.77;2.87;;;5.90;99.90;;;;;;5022310;28;20475;-78
2021/05/07 03:39:22;;;;;;;3.70;3.07;;;5.90;99.90;;;;;;5023510;28;20238;-78
2021/05/07 03:41:48;;;;;;;3.70;2.73;;;5.90;99.90;;;;;;5021920;28;20210;-78
2021/05/07 03:44:15;;;;;;;5.33;3.20;;;5.80;99.90;;;;;;5022817;28;20214;-78
2021/05/07 03:46:41;;;;;;;5.10;3.67;;;5.80;99.90;;;;;;5023396;28;20210;-78
2021/05/07 03:49:07;;;;;;;6.40;2.83;;;5.80;99.90;;;;;;5025860;28;20256;-77
2021/05/07 03:51:33;;;;;;;3.53;3.20;;;5.80;99.90;;;;;;5026032;28;20217;-78
2021/05/07 03:54:01;;;;;;;6.27;3.27;;;5.80;99.90;;;;;;5026479;28;20207;-78
2021/05/07 03:56:27;;;;;;;4.53;3.33;;;5.80;99.90;;;;;;5026094;28;20589;-78
2021/05/07 03:58:53;;;;;;;4.27;2.90;;;5.80;99.90;;;;;;5027265;28;20231;-79
2021/05/07 04:01:21;;;;;;;3.97;3.10;;;5.70;99.90;;;;;;5027126;28;20203;-78
2021/05/07 04:03:47;;;;;;;6.77;3.63;;;5.70;99.90;;;;;;5025965;28;20202;-78
2021/05/07 04:06:17;;;;;;;5.63;3.17;;;5.70;99.90;;;;;;5025643;28;20207;-78
2021/05/07 04:08:48;;;;;;;5.97;3.70;;;5.60;99.90;;;;;;5026440;28;20226;-76
2021/05/07 04:11:24;;;;;;;4.57;3.20;;;5.60;99.90;;;;;;5026005;28;20241;-77
2021/05/07 04:13:51;;;;;;;6.93;4.33;;;5.60;99.90;;;;;;5025877;28;20660;-79
2021/05/07 04:16:17;;;;;;;5.60;4.93;;;5.60;99.90;;;;;;5024516;28;20218;-77
2021/05/07 04:18:43;;;;;;;7.83;6.53;;;5.70;99.90;;;;;;5025357;28;20520;-77
2021/05/07 04:21:10;;;;;;;7.63;6.20;;;5.80;99.90;;;;;;5026206;28;20542;-77
2021/05/07 04:23:36;;;;;;;8.70;6.73;;;5.90;99.90;;;;;;5024958;28;20209;-77
2021/05/07 04:26:02;;;;;;;9.87;7.50;;;5.90;99.90;;;;;;5025747;28;20894;-77
2021/05/07 04:28:29;;;;;;;10.13;7.33;;;6.00;99.90;;;;;;5025581;28;20221;-78
2021/05/07 04:30:56;;;;;;;11.83;7.60;;;6.20;99.90;;;;;;5024783;28;20202;-78
2021/05/07 04:33:22;;;;;;;10.90;6.20;;;6.20;99.90;;;;;;5025826;28;20312;-78
2021/05/07 04:35:49;;;;;;;7.63;6.80;;;6.20;99.90;;;;;;5026350;28;20206;-80
2021/05/07 04:38:15;;;;;;;9.23;7.17;;;6.20;99.90;;;;;;5043636;28;20229;-78
2021/05/07 04:40:42;;;;;;;9.67;6.23;;;6.20;99.90;;;;;;5045371;28;20201;-77
2021/05/07 04:43:08;;;;;;;8.87;6.10;;;6.30;99.90;;;;;;5037718;28;20232;-79
2021/05/07 04:45:35;;;;;;;13.17;6.53;;;6.30;99.90;;;;;;5025201;28;20925;-78
2021/05/07 04:48:02;;;;;;;9.67;5.73;;;6.30;99.90;;;;;;5025444;28;20234;-77
2021/05/07 04:50:29;;;;;;;7.47;5.30;;;6.30;99.90;;;;;;5025905;28;20205;-78
2021/05/07 04:52:55;;;;;;;6.60;5.23;;;6.40;99.90;;;;;;5041726;28;20668;-77
2021/05/07 04:55:22;;;;;;;9.60;6.47;;;6.40;99.90;;;;;;5041243;28;20322;-77
2021/05/07 04:57:49;;;;;;;8.30;6.03;;;6.50;99.90;;;;;;5024268;28;20207;-79
2021/05/07 05:00:16;;;;;;;7.17;5.33;;;6.60;99.90;;;;;;5023607;28;20219;-79
2021/05/07 05:02:43;;;;;;;7.03;4.20;;;6.60;99.90;;;;;;5023934;28;20882;-79
2021/05/07 05:05:11;;;;;;;5.27;3.40;;;6.70;99.90;;;;;;5023774;28;20203;-79
2021/05/07 05:07:37;;;;;;;5.27;3.10;;;6.80;99.90;;;;;;5023408;28;20210;-80
2021/05/07 05:10:04;;;;;;;6.53;3.13;;;6.80;99.90;;;;;;5023382;28;20226;-80
2021/05/07 05:12:30;;;;;;;4.17;1.90;;;6.70;99.90;;;;;;5023283;28;20206;-79
2021/05/07 05:14:57;;;;;;;2.00;1.40;;;6.70;99.90;;;;;;5024101;28;20216;-80
2021/05/07 05:17:23;;;;;;;4.23;1.90;;;6.70;99.90;;;;;;5024668;28;20206;-78
2021/05/07 05:19:50;;;;;;;3.27;1.57;;;6.70;99.90;;;;;;5023412;28;20227;-79
2021/05/07 05:22:17;;;;;;;2.77;1.20;;;6.80;99.90;;;;;;5032711;28;20297;-78
2021/05/07 05:24:43;;;;;;;4.90;1.80;;;6.70;99.90;;;;;;5044159;28;20194;-79
2021/05/07 05:27:10;;;;;;;7.23;1.67;;;6.80;99.90;;;;;;5028841;28;20215;-79
2021/05/07 05:29:36;;;;;;;1.70;1.03;;;6.90;99.90;;;;;;5024392;28;20207;-78
2021/05/07 05:32:02;;;;;;;2.63;1.37;;;6.90;99.90;;;;;;5024269;28;20341;-79
2021/05/07 05:34:29;;;;;;;2.40;0.93;;;6.90;99.90;;;;;;5023949;28;20212;-77
2021/05/07 05:36:56;;;;;;;1.90;1.00;;;7.00;99.90;;;;;;5024184;28;20819;-78
2021/05/07 05:39:22;;;;;;;3.40;1.30;;;7.00;99.90;;;;;;5023368;28;20713;-79
2021/05/07 05:41:49;;;;;;;3.80;1.63;;;7.00;99.90;;;;;;5023104;28;20207;-79
2021/05/07 05:44:15;;;;;;;3.03;1.20;;;7.10;99.90;;;;;;5024201;28;20264;-79
2021/05/07 05:46:41;;;;;;;5.10;1.40;;;7.10;99.90;;;;;;5023791;28;20237;-80
2021/05/07 05:49:08;;;;;;;2.53;1.20;;;7.20;99.90;;;;;;5022961;28;20237;-79
2021/05/07 05:51:35;;;;;;;3.87;1.27;;;7.40;99.90;;;;;;5023355;28;20619;-79
2021/05/07 05:54:02;;;;;;;4.50;1.10;;;7.60;99.90;;;;;;5023406;28;20505;-78
2021/05/07 05:56:29;;;;;;;2.07;1.20;;;7.90;99.90;;;;;;5022736;28;20655;-79
2021/05/07 05:58:55;;;;;;;1.50;1.00;;;8.30;99.90;;;;;;5023078;28;20231;-79
2021/05/07 06:01:22;;;;;;;1.23;1.10;;;8.80;99.90;;;;;;5023890;28;20256;-79
2021/05/07 06:03:48;;;;;;;1.90;1.03;;;9.30;99.90;;;;;;5022893;28;20215;-80
2021/05/07 06:06:15;;;;;;;2.23;1.17;;;9.70;99.90;;;;;;5023857;28;20264;-78
2021/05/07 06:08:43;;;;;;;4.77;1.37;;;10.10;99.90;;;;;;5023779;28;20214;-79
2021/05/07 06:11:11;;;;;;;3.10;1.10;;;10.60;99.90;;;;;;5023584;28;20206;-80
2021/05/07 06:13:37;;;;;;;3.27;1.63;;;10.90;99.90;;;;;;5023906;28;20198;-79
2021/05/07 06:16:04;;;;;;;2.77;1.40;;;11.20;99.90;;;;;;5023312;28;20202;-79
2021/05/07 06:18:30;;;;;;;3.10;1.00;;;11.50;99.90;;;;;;5037651;28;20229;-80
2021/05/07 06:20:57;;;;;;;1.30;0.90;;;11.80;99.90;;;;;;5044192;28;20209;-81
2021/05/07 06:23:23;;;;;;;2.13;1.17;;;12.10;99.90;;;;;;5043989;28;20205;-84
2021/05/07 06:25:50;;;;;;;3.27;1.00;;;12.30;99.90;;;;;;5037657;28;20642;-84
2021/05/07 06:28:17;;;;;;;3.20;1.47;;;12.50;99.90;;;;;;5025791;28;20691;-84
2021/05/07 06:30:44;;;;;;;3.33;1.27;;;12.70;99.90;;;;;;5023798;28;20210;-81
2021/05/07 06:33:10;;;;;;;2.77;1.40;;;12.90;99.90;;;;;;5025644;28;20579;-80
2021/05/07 06:35:36;;;;;;;3.43;1.00;;;12.80;99.90;;;;;;5025974;28;20202;-79
2021/05/07 06:38:07;;;;;;;4.53;1.43;;;12.90;99.90;;;;;;5026716;28;20206;-81
2021/05/07 06:40:34;;;;;;;2.20;1.33;;;12.80;99.90;;;;;;5041442;28;20194;-82
2021/05/07 06:43:22;;;;;;;2.30;1.03;;;12.80;99.90;;;;;;5035187;28;20249;-81
2021/05/07 06:45:48;;;;;;;2.77;0.90;;;13.10;99.90;;;;;;5046337;28;20222;-80
2021/05/07 06:48:15;;;;;;;1.47;1.10;;;13.20;99.90;;;;;;5047074;28;20244;-82
2021/05/07 06:50:41;;;;;;;3.13;1.97;;;13.30;99.90;;;;;;5029243;28;20217;-82
2021/05/07 06:53:07;;;;;;;2.67;1.10;;;13.40;99.90;;;;;;5026777;28;20229;-81
2021/05/07 06:55:33;;;;;;;1.87;1.10;;;13.50;99.90;;;;;;5027102;28;20194;-81
2021/05/07 06:58:00;;;;;;;2.37;1.10;;;13.80;99.90;;;;;;5026275;28;20633;-81
2021/05/07 07:00:29;;;;;;;3.03;1.40;;;13.70;99.90;;;;;;5019622;28;20661;-80
2021/05/07 07:02:55;;;;;;;3.07;1.10;;;13.70;99.90;;;;;;5025303;28;20210;-81
2021/05/07 07:05:22;;;;;;;2.57;1.00;;;13.80;99.90;;;;;;5025830;28;20194;-82
2021/05/07 07:07:48;;;;;;;1.43;1.10;;;13.80;99.90;;;;;;5026967;28;20202;-81
2021/05/07 07:10:15;;;;;;;2.50;1.23;;;13.90;99.90;;;;;;5027968;28;20221;-82
2021/05/07 07:12:41;;;;;;;2.87;1.17;;;13.90;99.90;;;;;;5026848;28;20206;-81
2021/05/07 07:15:08;;;;;;;1.73;1.00;;;13.90;99.90;;;;;;5026489;28;20241;-81
2021/05/07 07:17:36;;;;;;;2.53;1.27;;;14.20;99.90;;;;;;5025681;28;20269;-84
2021/05/07 07:20:03;;;;;;;2.30;1.30;;;14.40;99.90;;;;;;5024580;28;20222;-80
2021/05/07 07:22:30;;;;;;;3.27;1.00;;;14.60;99.90;;;;;;5026707;28;20218;-82
2021/05/07 07:24:56;;;;;;;3.67;1.20;;;14.70;99.90;;;;;;5031442;28;20199;-82
2021/05/07 07:27:23;;;;;;;2.43;1.17;;;14.90;99.90;;;;;;5047278;28;20214;-81
2021/05/07 07:29:49;;;;;;;1.70;1.27;;;15.10;99.90;;;;;;5048672;28;20205;-82
2021/05/07 07:32:19;;;;;;;4.13;1.37;;;15.20;99.90;;;;;;5048436;28;20210;-80
2021/05/07 07:34:46;;;;;;;3.50;1.20;;;14.90;99.90;;;;;;5045449;28;20206;-82
2021/05/07 07:37:12;;;;;;;1.90;1.20;;;14.90;99.90;;;;;;5046288;28;20194;-79
2021/05/07 07:39:39;;;;;;;2.53;1.17;;;15.00;99.90;;;;;;5046145;28;20664;-80
2021/05/07 07:42:06;;;;;;;3.23;1.30;;;15.00;99.90;;;;;;5045164;28;20211;-78
2021/05/07 07:44:32;;;;;;;1.50;1.30;;;14.80;99.90;;;;;;5045866;28;20202;-80
2021/05/07 07:46:58;;;;;;;2.33;1.40;;;14.40;99.90;;;;;;5031869;28;20220;-80
2021/05/07 07:49:25;;;;;;;3.57;1.60;;;14.10;99.90;;;;;;5026079;28;20236;-80
2021/05/07 07:51:57;;;;;;;4.20;1.30;;;13.80;99.90;;;;;;5031645;28;20198;-79
2021/05/07 07:54:24;;;;;;;2.07;1.43;;;13.90;99.90;;;;;;5046238;28;20209;-78
2021/05/07 07:56:51;;;;;;;3.20;1.60;;;14.20;99.90;;;;;;5043822;28;20202;-81
2021/05/07 07:59:17;;;;;;;3.00;1.57;;;14.40;99.90;;;;;;5036963;28;20631;-79
2021/05/07 08:01:44;;;;;;;2.33;1.50;;;14.40;99.90;;;;;;5026325;28;20521;-81
2021/05/07 08:04:10;;;;;;;1.90;1.47;;;14.50;99.90;;;;;;5025098;28;20206;-79
2021/05/07 08:06:36;;;;;;;3.20;1.87;;;14.80;99.90;;;;;;5024837;28;20210;-80
2021/05/07 08:09:04;;;;;;;2.00;1.40;;;14.80;99.90;;;;;;5024576;28;20646;-80
2021/05/07 08:11:31;;;;;;;2.33;1.50;;;14.80;99.90;;;;;;5024680;28;20727;-77
2021/05/07 08:13:57;;;;;;;3.77;1.60;;;14.20;99.90;;;;;;5024654;28;20910;-78
2021/05/07 08:16:23;;;;;;;2.30;1.63;;;13.50;99.90;;;;;;5024208;28;20206;-79
2021/05/07 08:18:49;;;;;;;2.43;1.60;;;13.10;99.90;;;;;;5024179;28;20698;-78
2021/05/07 08:21:16;;;;;;;7.20;2.73;;;13.20;99.90;;;;;;5023483;28;20209;-82
2021/05/07 08:23:42;;;;;;;3.07;1.63;;;13.50;99.90;;;;;;5024237;28;20560;-78
2021/05/07 08:26:09;;;;;;;2.47;1.53;;;13.90;99.90;;;;;;5025322;28;20974;-80
2021/05/07 08:28:35;;;;;;;1.83;1.43;;;14.20;99.90;;;;;;5025195;28;20236;-79
2021/05/07 08:31:02;;;;;;;1.90;1.37;;;14.50;99.90;;;;;;5023868;28;20265;-77
2021/05/07 08:33:28;;;;;;;4.30;1.60;;;14.70;99.90;;;;;;5023903;28;20583;-77
2021/05/07 08:35:55;;;;;;;3.20;1.73;;;14.80;99.90;;;;;;5025397;28;20202;-79
2021/05/07 08:38:21;;;;;;;4.43;1.93;;;14.60;99.90;;;;;;5024252;28;20291;-77
2021/05/07 08:40:47;;;;;;;4.63;1.97;;;14.50;99.90;;;;;;5024670;28;20249;-80
2021/05/07 08:43:16;;;;;;;2.53;1.70;;;14.50;99.90;;;;;;5040478;28;20210;-77
2021/05/07 08:45:42;;;;;;;3.10;1.53;;;14.10;99.90;;;;;;5043803;28;20665;-77
2021/05/07 08:48:11;;;;;;;2.07;1.77;;;13.50;99.90;;;;;;5032890;28;20246;-77
2021/05/07 08:50:37;;;;;;;2.23;1.60;;;13.20;99.90;;;;;;5024204;28;20199;-78
2021/05/07 08:53:04;;;;;;;3.70;1.83;;;13.10;99.90;;;;;;5024437;28;20218;-78
2021/05/07 08:55:30;;;;;;;2.77;1.40;;;13.20;99.90;;;;;;5024735;28;20232;-77
2021/05/07 08:57:57;;;;;;;2.20;1.67;;;13.30;99.90;;;;;;5024487;28;20206;-79
2021/05/07 09:00:24;;;;;;;4.00;1.80;;;13.50;99.90;;;;;;5024479;28;20230;-76
2021/05/07 09:02:50;;;;;;;2.00;1.80;;;13.80;99.90;;;;;;5024389;28;20344;-78
2021/05/07 09:05:30;;;;;;;3.57;1.80;;;14.10;99.90;;;;;;5023768;28;20256;-78
2021/05/07 09:07:56;;;;;;;5.50;1.60;;;14.60;99.90;;;;;;5024455;28;20198;-80
2021/05/07 09:10:32;;;;;;;4.30;2.10;;;14.90;99.90;;;;;;5023611;28;20226;-79
2021/05/07 09:12:58;;;;;;;4.10;1.83;;;15.30;99.90;;;;;;5058538;22;20244;-79
2021/05/07 09:15:39;;;;;;;2.33;1.47;;;15.40;99.90;;;;;;5050361;28;20347;-80
2021/05/07 09:18:06;;;;;;;2.33;1.50;;;15.60;99.90;;;;;;5044200;28;20221;-77
2021/05/07 09:20:36;;;;;;;3.47;1.57;;;15.70;99.90;;;;;;5043391;28;20221;-80
2021/05/07 09:23:03;;;;;;;2.10;1.60;;;15.90;99.90;;;;;;5043612;28;20206;-76
2021/05/07 09:25:30;;;;;;;3.17;1.80;;;15.80;99.90;;;;;;5046783;28;20205;-79
2021/05/07 09:28:06;;;;;;;5.27;2.20;;;15.50;99.90;;;;;;5062983;28;20233;-77
2021/05/07 09:30:34;;;;;;;5.03;1.97;;;15.20;99.90;;;;;;5061443;28;20192;-77
2021/05/07 09:33:05;;;;;;;3.93;2.03;;;14.80;99.90;;;;;;5042854;28;20216;-81
2021/05/07 09:35:32;;;;;;;7.57;2.20;;;14.50;99.90;;;;;;5043616;28;20194;-79
2021/05/07 09:38:00;;;;;;;2.83;1.67;;;14.70;99.90;;;;;;5056783;28;20215;-78
2021/05/07 09:40:26;;;;;;;3.00;1.80;;;14.80;99.90;;;;;;5062836;28;20225;-77
2021/05/07 09:43:04;;;;;;;5.33;2.30;;;14.80;99.90;;;;;;5043880;28;20212;-77
2021/05/07 09:45:31;;;;;;;3.93;1.87;;;14.90;99.90;;;;;;5043552;28;20764;-77
2021/05/07 09:47:58;;;;;;;3.70;2.10;;;14.60;99.90;;;;;;5042804;28;20201;-77
2021/05/07 09:50:38;;;;;;;3.20;2.03;;;14.70;99.90;;;;;;5043882;28;20259;-78
2021/05/07 09:53:13;;;;;;;3.77;2.23;;;14.60;99.90;;;;;;5043331;28;20704;-78
2021/05/07 09:55:39;;;;;;;3.23;2.23;;;14.40;99.90;;;;;;5043513;28;20236;-77
2021/05/07 09:58:06;;;;;;;2.87;1.87;;;14.40;99.90;;;;;;5042693;28;20216;-77
2021/05/07 10:00:32;;;;;;;3.73;2.50;;;14.60;99.90;;;;;;5042830;28;20271;-82
2021/05/07 10:03:00;;;;;;;3.30;2.37;;;15.00;99.90;;;;;;5042441;28;20213;-78
2021/05/07 10:05:27;;;;;;;3.67;2.73;;;15.30;99.90;;;;;;5062907;28;20270;-78
2021/05/07 10:07:54;;;;;;;4.17;2.60;;;15.30;99.90;;;;;;5062720;28;20206;-78
2021/05/07 10:10:27;;;;;;;3.67;2.67;;;15.40;99.90;;;;;;5062579;28;20227;-81
2021/05/07 10:12:55;;;;;;;3.60;2.63;;;15.70;99.90;;;;;;5043746;28;20281;-82
2021/05/07 10:15:27;;;;;;;3.97;2.90;;;15.90;99.90;;;;;;5043112;28;20556;-76
2021/05/07 10:17:53;;;;;;;4.13;2.50;;;16.10;99.90;;;;;;5043659;28;20213;-78
2021/05/07 10:20:29;;;;;;;4.05;2.63;;;16.10;99.90;;;;;;5043138;28;20248;-77
2021/05/07 10:22:55;;;;;;;3.28;2.88;;;16.20;99.90;;;;;;5043938;28;20210;-83
2021/05/07 10:25:23;;;;;;;3.57;2.70;;;16.20;99.90;;;;;;5043794;28;20213;-80
2021/05/07 10:27:52;;;;;;;5.80;2.83;;;16.20;99.90;;;;;;5043662;28;20828;-78
2021/05/07 10:30:26;;;;;;;4.43;3.00;;;16.20;99.90;;;;;;5043436;28;20251;-80
2021/05/07 10:32:58;;;;;;;3.63;2.97;;;16.40;99.90;;;;;;5060919;28;20204;-84
2021/05/07 10:35:38;;;;;;;4.55;3.05;;;16.40;99.90;;;;;;5062062;28;20224;-80
2021/05/07 10:38:16;;;;;;;6.07;2.90;;;16.10;99.90;;;;;;5060890;28;20292;-82
2021/05/07 10:40:44;;;;;;;6.77;3.50;;;16.20;99.90;;;;;;5063558;28;20890;-80
2021/05/07 10:43:11;;;;;;;4.07;3.03;;;15.80;99.90;;;;;;5061719;28;20205;-79
2021/05/07 10:45:51;;;;;;;4.80;3.30;;;15.90;99.90;;;;;;5063830;28;20806;-78
2021/05/07 10:48:25;;;;;;;3.60;3.30;;;15.90;99.90;;;;;;5045957;28;20324;-78
2021/05/07 10:50:55;;;;;;;5.60;3.50;;;15.60;99.90;;;;;;5043317;28;20243;-80
2021/05/07 10:53:35;;;;;;;5.23;3.53;;;15.20;99.90;;;;;;5044088;28;20202;-77
2021/05/07 10:56:14;;;;;;;7.23;3.00;;;15.10;99.90;;;;;;5044490;28;20227;-77
2021/05/07 10:58:40;;;;;;;4.67;3.10;;;15.30;99.90;;;;;;5045869;28;20277;-77
2021/05/07 11:01:18;;;;;;;3.50;2.73;;;15.60;99.90;;;;;;5046165;28;20212;-77
2021/05/07 11:03:45;;;;;;;4.70;3.20;;;15.70;99.90;;;;;;5045313;28;20577;-76
2021/05/07 11:06:17;;;;;;;4.27;3.03;;;15.90;99.90;;;;;;5044661;28;20201;-78
2021/05/07 11:08:43;;;;;;;4.30;2.97;;;16.00;99.90;;;;;;5059725;28;20491;-76
2021/05/07 11:11:10;;;;;;;2.70;2.50;;;15.90;99.90;;;;;;5065704;28;20590;-75
2021/05/07 11:13:37;;;;;;;4.80;3.20;;;15.90;99.90;;;;;;5064093;28;20240;-76
2021/05/07 11:16:04;;;;;;;3.40;3.10;;;15.70;99.90;;;;;;5065938;28;20201;-78
2021/05/07 11:18:33;;;;;;;4.70;2.90;;;15.80;99.90;;;;;;5048507;28;20862;-77
2021/05/07 11:21:10;;;;;;;3.90;2.70;;;15.90;99.90;;;;;;5045790;28;20210;-76
2021/05/07 11:23:37;;;;;;;4.57;3.13;;;15.90;99.90;;;;;;5044593;28;20221;-76
2021/05/07 11:26:07;;;;;;;7.17;3.47;;;15.50;99.90;;;;;;5044298;28;20629;-75
2021/05/07 11:28:41;;;;;;;3.47;2.87;;;15.20;99.90;;;;;;5045835;28;20194;-77
2021/05/07 11:31:07;;;;;;;4.47;2.93;;;15.20;99.90;;;;;;5045703;28;20270;-76
2021/05/07 11:33:34;;;;;;;7.43;3.10;;;15.40;99.90;;;;;;5045002;28;20217;-78
2021/05/07 11:36:05;;;;;;;3.90;3.37;;;15.60;99.90;;;;;;5046479;28;20237;-79
2021/05/07 11:38:31;;;;;;;3.70;3.23;;;15.70;99.90;;;;;;5045009;28;20194;-78
2021/05/07 11:40:58;;;;;;;3.30;3.00;;;15.30;99.90;;;;;;5046050;28;20233;-83
2021/05/07 11:43:27;;;;;;;5.03;3.20;;;15.30;99.90;;;;;;5045600;28;20610;-79
2021/05/07 11:46:03;;;;;;;3.97;2.65;;;15.30;99.90;;;;;;5045293;28;20252;-79
2021/05/07 11:48:30;;;;;;;3.72;2.78;;;15.40;99.90;;;;;;5045761;28;20213;-80
2021/05/07 11:50:56;;;;;;;3.53;2.57;;;15.50;99.90;;;;;;5044825;28;20662;-76
2021/05/07 11:53:22;;;;;;;2.67;1.77;;;15.30;99.90;;;;;;5044392;28;20617;-76
2021/05/07 11:55:49;;;;;;;3.30;1.43;;;15.50;99.90;;;;;;5044777;28;20205;-74
2021/05/07 11:58:16;;;;;;;4.07;1.07;;;15.30;99.90;;;;;;5045758;28;20228;-76
2021/05/07 12:00:44;;;;;;;3.00;1.50;;;15.20;99.90;;;;;;5044845;28;20253;-76
2021/05/07 12:03:14;;;;;;;6.50;1.27;;;15.30;99.90;;;;;;5045083;28;20240;-77
2021/05/07 12:05:41;;;;;;;1.60;0.90;;;15.30;99.90;;;;;;5044724;28;20213;-82
2021/05/07 12:08:09;;;;;;;3.47;1.00;;;15.30;99.90;;;;;;5043624;28;20216;-76
2021/05/07 12:10:36;;;;;;;4.90;1.10;;;15.20;99.90;;;;;;5045204;28;20226;-76
2021/05/07 12:13:03;;;;;;;3.33;1.60;;;15.30;99.90;;;;;;5044154;28;20246;-77
2021/05/07 12:15:42;;;;;;;2.95;1.33;;;15.50;99.90;;;;;;5043601;28;20712;-77
2021/05/07 12:18:16;;;;;;;1.97;1.00;;;15.50;99.90;;;;;;5044509;28;20233;-77
2021/05/07 12:20:44;;;;;;;2.90;1.10;;;15.50;99.90;;;;;;5044949;28;20564;-75
2021/05/07 12:23:11;;;;;;;3.00;1.30;;;15.60;99.90;;;;;;5043344;28;20691;-78
2021/05/07 12:25:41;;;;;;;3.13;1.23;;;15.80;99.90;;;;;;5044618;28;20202;-77
2021/05/07 12:28:14;;;;;;;2.95;1.40;;;15.90;99.90;;;;;;5044868;28;20202;-79
2021/05/07 12:30:44;;;;;;;1.90;0.93;;;15.70;99.90;;;;;;5043990;28;20284;-78
2021/05/07 12:33:16;;;;;;;2.07;0.77;;;15.50;99.90;;;;;;5044670;28;20251;-78
2021/05/07 12:35:44;;;;;;;2.67;1.05;;;15.50;99.90;;;;;;5043984;28;20205;-76
2021/05/07 12:38:20;;;;;;;1.03;0.77;;;15.70;99.90;;;;;;5043296;28;20241;-78
2021/05/07 12:40:46;;;;;;;2.50;1.00;;;15.90;99.90;;;;;;5044271;28;20290;-79
2021/05/07 12:43:13;;;;;;;5.77;1.47;;;16.00;99.90;;;;;;5042969;28;20236;-78
2021/05/07 12:45:39;;;;;;;2.37;1.20;;;15.90;99.90;;;;;;5044253;28;20214;-77
2021/05/07 12:48:07;;;;;;;4.70;1.27;;;15.70;99.90;;;;;;5044223;28;20191;-78
2021/05/07 12:50:33;;;;;;;6.68;1.80;;;15.60;99.90;;;;;;5043833;28;20332;-77
2021/05/07 12:52:59;;;;;;;3.40;1.40;;;15.70;99.90;;;;;;5043908;28;20510;-77